Time,TemperatureF,DewpointF,PressureIn,WindDirection,WindDirectionDegrees,WindSpeedMPH,WindSpeedGustMPH,Humidity,HourlyPrecipIn,Conditions,Clouds,dailyrainin,SolarRadiationWatts/m^2,SoftwareType,DateUTC
2013-02-16 00:00:00,23.9,12.4,30.12,WNW,288,5.3,5.3,61,0.00,OVC,,0.00,0.0,WeatherDisplay:10.37,2013-02-16 05:00:00,
2013-02-16 00:03:00,23.8,12.3,30.12,WNW,287,3.1,4.6,61,0.00,BKN,,0.00,0.0,WeatherDisplay:10.37,2013-02-16 05:03:00,
2013-02-16 00:08:00,23.6,12.1,30.12,WNW,299,2.6,3.5,61,0.00,BKN,,0.00,0.0,WeatherDisplay:10.37,2013-02-16 05:08:00,
2013-02-16 00:13:00,23.5,12.4,30.12,WNW,296,3.4,3.5,62,0.00,BKN,,0.00,0.0,WeatherDisplay:10.37,2013-02-16 05:13:00,
2013-02-16 00:18:00,23.3,12.2,30.12,WNW,294,4.8,4.8,62,0.00,BKN,,0.00,0.0,WeatherDisplay:10.37,2013-02-16 05:18:00,
2013-02-16 00:23:00,23.3,12.2,30.12,West,280,4.0,5.8,62,0.00,BKN,,0.00,0.0,WeatherDisplay:10.37,2013-02-16 05:23:00,
2013-02-16 00:28:00,23.2,12.5,30.12,West,281,0.3,3.5,63,0.00,BKN,,0.00,0.0,WeatherDisplay:10.37,2013-02-16 05:28:00,
2013-02-16 00:33:00,23.0,12.3,30.12,West,281,0.0,0.0,63,0.00,BKN,,0.00,0.0,WeatherDisplay:10.37,2013-02-16 05:33:00,
2013-02-16 00:38:00,22.7,12.3,30.12,West,281,0.1,1.1,64,0.00,BKN,,0.00,0.0,WeatherDisplay:10.37,2013-02-16 05:38:00,
2013-02-16 00:43:00,22.4,12.1,30.12,West,281,2.6,3.5,64,0.00,BKN,,0.00,0.0,WeatherDisplay:10.37,2013-02-16 05:43:00,
2013-02-16 00:48:00,22.2,11.9,30.12,West,281,3.9,4.6,64,0.00,BKN,,0.00,0.0,WeatherDisplay:10.37,2013-02-16 05:48:00,
2013-02-16 00:53:00,22.2,12.2,30.12,West,281,2.5,3.5,65,0.00,BKN,,0.00,0.0,WeatherDisplay:10.37,2013-02-16 05:53:00,
2013-02-16 00:58:00,22.1,12.1,30.12,WNW,282,3.9,4.6,65,0.00,BKN,,0.00,0.0,WeatherDisplay:10.37,2013-02-16 05:58:00,
2013-02-16 01:03:00,21.9,11.9,30.12,WNW,282,2.9,3.5,65,0.00,BKN,,0.00,0.0,WeatherDisplay:10.37,2013-02-16 06:03:00,
2013-02-16 01:08:00,21.8,12.2,30.12,WNW,282,1.7,1.7,66,0.00,BKN,,0.00,0.0,WeatherDisplay:10.37,2013-02-16 06:08:00,
2013-02-16 01:13:00,21.6,12.0,30.12,WNW,282,1.0,1.5,66,0.00,BKN,,0.00,0.0,WeatherDisplay:10.37,2013-02-16 06:13:00,
2013-02-16 01:18:00,21.3,12.0,30.11,WNW,282,0.0,0.0,67,0.00,BKN,,0.00,0.0,WeatherDisplay:10.37,2013-02-16 06:18:00,
2013-02-16 01:23:00,21.1,11.8,30.11,WNW,282,0.0,0.0,67,0.00,BKN,,0.00,0.0,WeatherDisplay:10.37,2013-02-16 06:23:00,
2013-02-16 01:28:00,20.8,11.6,30.11,WNW,282,0.0,0.0,67,0.00,BKN,,0.00,0.0,WeatherDisplay:10.37,2013-02-16 06:28:00,
2013-02-16 01:33:00,20.6,11.7,30.11,WNW,282,0.0,0.0,68,0.00,BKN,,0.00,0.0,WeatherDisplay:10.37,2013-02-16 06:33:00,
2013-02-16 01:38:00,20.3,11.4,30.11,WNW,282,0.0,0.0,68,0.00,BKN,,0.00,0.0,WeatherDisplay:10.37,2013-02-16 06:38:00,
2013-02-16 01:43:00,20.0,11.8,30.11,WNW,282,0.0,0.0,70,0.00,BKN,,0.00,0.0,WeatherDisplay:10.37,2013-02-16 06:43:00,
2013-02-16 01:48:00,19.7,11.8,30.11,WNW,282,0.0,0.0,71,0.00,BKN,,0.00,0.0,WeatherDisplay:10.37,2013-02-16 06:48:00,
2013-02-16 01:53:00,19.5,11.9,30.11,WNW,282,0.0,0.0,72,0.00,BKN,,0.00,0.0,WeatherDisplay:10.37,2013-02-16 06:53:00,
2013-02-16 01:58:00,19.7,12.1,30.11,WNW,282,2.4,3.5,72,0.00,BKN,,0.00,0.0,WeatherDisplay:10.37,2013-02-16 06:58:00,
2013-02-16 02:03:00,19.9,12.3,30.11,WNW,282,1.2,1.5,72,0.00,SCT,,0.00,0.0,WeatherDisplay:10.37,2013-02-16 07:03:00,
2013-02-16 02:08:00,20.0,12.4,30.11,WNW,282,3.6,4.6,72,0.00,SCT,,0.00,0.0,WeatherDisplay:10.37,2013-02-16 07:08:00,
2013-02-16 02:13:00,20.3,12.4,30.11,WNW,282,3.1,3.5,71,0.00,SCT,,0.00,0.0,WeatherDisplay:10.37,2013-02-16 07:13:00,
2013-02-16 02:18:00,20.3,12.4,30.11,WNW,282,0.9,3.5,71,0.00,SCT,,0.00,0.0,WeatherDisplay:10.37,2013-02-16 07:18:00,
2013-02-16 02:23:00,20.3,12.4,30.11,WNW,282,0.2,1.1,71,0.00,SCT,,0.00,0.0,WeatherDisplay:10.37,2013-02-16 07:23:00,
2013-02-16 02:28:00,20.3,12.4,30.11,WNW,282,2.1,3.5,71,0.00,SCT,,0.00,0.0,WeatherDisplay:10.37,2013-02-16 07:28:00,
2013-02-16 02:33:00,20.3,12.4,30.10,WNW,282,2.2,2.2,71,0.00,SCT,,0.00,0.0,WeatherDisplay:10.37,2013-02-16 07:33:00,
2013-02-16 02:38:00,20.2,12.3,30.10,WNW,282,2.9,3.5,71,0.00,SCT,,0.00,0.0,WeatherDisplay:10.37,2013-02-16 07:38:00,
2013-02-16 02:43:00,20.2,12.3,30.10,WNW,282,1.1,3.5,71,0.00,SCT,,0.00,0.0,WeatherDisplay:10.37,2013-02-16 07:43:00,
2013-02-16 02:48:00,20.2,12.3,30.10,WNW,282,2.2,3.5,71,0.00,SCT,,0.00,0.0,WeatherDisplay:10.37,2013-02-16 07:48:00,
2013-02-16 02:53:00,20.2,12.6,30.10,WNW,282,1.7,3.5,72,0.00,SCT,,0.00,0.0,WeatherDisplay:10.37,2013-02-16 07:53:00,
2013-02-16 02:58:00,20.2,12.6,30.10,WNW,282,1.8,4.5,72,0.00,SCT,,0.00,0.0,WeatherDisplay:10.37,2013-02-16 07:58:00,
2013-02-16 03:03:00,20.2,12.6,30.10,WNW,282,2.1,3.5,72,0.00,SCT,,0.00,0.0,WeatherDisplay:10.37,2013-02-16 08:03:00,
2013-02-16 03:08:00,20.0,12.4,30.10,WNW,282,0.0,0.0,72,0.00,SCT,,0.00,0.0,WeatherDisplay:10.37,2013-02-16 08:08:00,
2013-02-16 03:13:00,19.9,12.3,30.10,WNW,282,0.0,0.0,72,0.00,SCT,,0.00,0.0,WeatherDisplay:10.37,2013-02-16 08:13:00,
2013-02-16 03:18:00,19.7,12.1,30.09,WNW,282,0.0,0.0,72,0.00,SCT,,0.00,0.0,WeatherDisplay:10.37,2013-02-16 08:18:00,
2013-02-16 03:23:00,19.4,12.2,30.09,WNW,282,0.0,0.0,73,0.00,SCT,,0.00,0.0,WeatherDisplay:10.37,2013-02-16 08:23:00,
2013-02-16 03:28:00,18.9,11.7,30.09,WNW,282,0.0,0.0,73,0.00,SCT,,0.00,0.0,WeatherDisplay:10.37,2013-02-16 08:28:00,
2013-02-16 03:33:00,18.6,11.7,30.09,WNW,282,0.0,0.0,74,0.00,SCT,,0.00,0.0,WeatherDisplay:10.37,2013-02-16 08:33:00,
2013-02-16 03:38:00,18.3,11.7,30.09,WNW,282,0.0,0.0,75,0.00,SCT,,0.00,0.0,WeatherDisplay:10.37,2013-02-16 08:38:00,
2013-02-16 03:43:00,18.1,11.8,30.09,WNW,282,0.0,0.0,76,0.00,SCT,,0.00,0.0,WeatherDisplay:10.37,2013-02-16 08:43:00,
2013-02-16 03:48:00,17.8,11.5,30.08,WNW,282,0.0,0.0,76,0.00,SCT,,0.00,0.0,WeatherDisplay:10.37,2013-02-16 08:48:00,
2013-02-16 03:54:00,17.7,11.7,30.08,WNW,282,0.0,0.0,77,0.00,SCT,,0.00,0.0,WeatherDisplay:10.37,2013-02-16 08:54:00,
2013-02-16 03:59:00,17.5,11.5,30.08,WNW,282,0.0,0.0,77,0.00,SCT,,0.00,0.0,WeatherDisplay:10.37,2013-02-16 08:59:00,
2013-02-16 04:04:00,17.3,11.3,30.08,WNW,282,0.0,0.0,77,0.00,SCT,,0.00,0.0,WeatherDisplay:10.37,2013-02-16 09:04:00,
2013-02-16 04:09:00,17.3,11.6,30.08,WNW,282,0.0,0.0,78,0.00,SCT,,0.00,0.0,WeatherDisplay:10.37,2013-02-16 09:09:00,
2013-02-16 04:14:00,17.3,11.9,30.08,WNW,282,0.0,0.0,79,0.00,SCT,,0.00,0.0,WeatherDisplay:10.37,2013-02-16 09:14:00,
2013-02-16 04:19:00,17.3,11.9,30.09,WNW,282,0.0,0.0,79,0.00,SCT,,0.00,0.0,WeatherDisplay:10.37,2013-02-16 09:19:00,
2013-02-16 04:24:00,17.3,11.9,30.09,WNW,282,0.0,0.0,79,0.00,SCT,,0.00,0.0,WeatherDisplay:10.37,2013-02-16 09:24:00,
2013-02-16 04:29:00,17.2,11.8,30.09,WNW,282,0.0,0.0,79,0.00,SCT,,0.00,0.0,WeatherDisplay:10.37,2013-02-16 09:29:00,
2013-02-16 04:34:00,17.0,11.6,30.08,WNW,282,0.0,0.0,79,0.00,SCT,,0.00,0.0,WeatherDisplay:10.37,2013-02-16 09:34:00,
2013-02-16 04:39:00,16.9,11.5,30.08,WNW,282,0.0,0.0,79,0.00,SCT,,0.00,0.0,WeatherDisplay:10.37,2013-02-16 09:39:00,
2013-02-16 04:44:00,16.9,11.5,30.08,WNW,282,0.0,0.0,79,0.00,SCT,,0.00,0.0,WeatherDisplay:10.37,2013-02-16 09:44:00,
2013-02-16 04:49:00,16.7,11.6,30.08,WNW,282,0.0,0.0,80,0.00,SCT,,0.00,0.0,WeatherDisplay:10.37,2013-02-16 09:49:00,
2013-02-16 04:54:00,16.9,11.8,30.08,WNW,282,0.0,0.0,80,0.00,SCT,,0.00,0.0,WeatherDisplay:10.37,2013-02-16 09:54:00,
2013-02-16 04:59:00,16.7,11.9,30.08,WNW,282,0.0,0.0,81,0.00,SCT,,0.00,0.0,WeatherDisplay:10.37,2013-02-16 09:59:00,
2013-02-16 05:04:00,16.7,11.9,30.08,WNW,282,0.0,0.0,81,0.00,SCT,,0.00,0.0,WeatherDisplay:10.37,2013-02-16 10:04:00,
2013-02-16 05:09:00,16.9,12.1,30.08,WNW,282,0.0,0.0,81,0.00,SCT,,0.00,0.0,WeatherDisplay:10.37,2013-02-16 10:09:00,
2013-02-16 05:14:00,16.9,12.4,30.08,WNW,282,0.0,0.0,82,0.00,SCT,,0.00,0.0,WeatherDisplay:10.37,2013-02-16 10:14:00,
2013-02-16 05:19:00,17.2,12.9,30.08,WNW,282,0.0,0.0,83,0.00,SCT,,0.00,0.0,WeatherDisplay:10.37,2013-02-16 10:19:00,
2013-02-16 05:24:00,17.5,13.2,30.08,WNW,282,0.0,0.0,83,0.00,SCT,,0.00,0.0,WeatherDisplay:10.37,2013-02-16 10:24:00,
2013-02-16 05:29:00,17.8,13.8,30.08,WNW,282,0.0,0.0,84,0.00,SCT,,0.00,0.0,WeatherDisplay:10.37,2013-02-16 10:29:00,
2013-02-16 05:34:00,18.0,14.0,30.08,WNW,282,0.0,0.0,84,0.00,SCT,,0.00,0.0,WeatherDisplay:10.37,2013-02-16 10:34:00,
2013-02-16 05:39:00,18.0,14.0,30.08,WNW,282,0.0,0.0,84,0.00,SCT,,0.00,0.0,WeatherDisplay:10.37,2013-02-16 10:39:00,
2013-02-16 05:44:00,18.1,14.1,30.08,WNW,282,0.0,0.0,84,0.00,SCT,,0.00,0.0,WeatherDisplay:10.37,2013-02-16 10:44:00,
2013-02-16 05:49:00,18.3,14.3,30.08,WNW,282,0.0,0.0,84,0.00,SCT,,0.00,0.0,WeatherDisplay:10.37,2013-02-16 10:49:00,
2013-02-16 05:54:00,18.3,14.3,30.08,WNW,282,0.0,0.0,84,0.00,SCT,,0.00,0.0,WeatherDisplay:10.37,2013-02-16 10:54:00,
2013-02-16 05:59:00,18.4,14.4,30.08,WNW,282,0.0,0.0,84,0.00,SCT,,0.00,0.0,WeatherDisplay:10.37,2013-02-16 10:59:00,
2013-02-16 06:04:00,18.9,14.9,30.07,WNW,282,0.0,0.0,84,0.00,BKN,,0.00,0.0,WeatherDisplay:10.37,2013-02-16 11:04:00,
2013-02-16 06:09:00,19.2,14.9,30.07,WNW,282,0.0,0.0,83,0.00,BKN,,0.00,0.0,WeatherDisplay:10.37,2013-02-16 11:09:00,
2013-02-16 06:14:00,19.2,14.9,30.07,WNW,282,0.0,0.0,83,0.00,BKN,,0.00,0.0,WeatherDisplay:10.37,2013-02-16 11:14:00,
2013-02-16 06:19:00,19.2,14.6,30.07,WNW,282,0.0,0.0,82,0.00,BKN,,0.00,0.0,WeatherDisplay:10.37,2013-02-16 11:19:00,
2013-02-16 06:24:00,19.4,14.8,30.07,WNW,282,0.0,0.0,82,0.00,BKN,,0.00,0.0,WeatherDisplay:10.37,2013-02-16 11:24:00,
2013-02-16 06:29:00,19.5,14.9,30.07,WNW,282,0.0,0.0,82,0.00,BKN,,0.00,0.0,WeatherDisplay:10.37,2013-02-16 11:29:00,
2013-02-16 06:34:00,19.9,15.0,30.07,WNW,282,0.0,0.0,81,0.00,BKN,,0.00,0.0,WeatherDisplay:10.37,2013-02-16 11:34:00,
2013-02-16 06:39:00,19.7,14.8,30.07,WNW,282,0.0,0.0,81,0.00,BKN,,0.00,0.0,WeatherDisplay:10.37,2013-02-16 11:39:00,
2013-02-16 06:44:00,19.7,14.5,30.07,WNW,282,0.0,0.0,80,0.00,BKN,,0.00,0.0,WeatherDisplay:10.37,2013-02-16 11:44:00,
2013-02-16 06:49:00,19.5,14.3,30.07,WNW,282,0.0,0.0,80,0.00,BKN,,0.00,0.0,WeatherDisplay:10.37,2013-02-16 11:49:00,
2013-02-16 06:54:00,19.5,14.3,30.07,WNW,282,0.0,0.0,80,0.00,BKN,,0.00,0.0,WeatherDisplay:10.37,2013-02-16 11:54:00,
2013-02-16 06:59:00,19.4,14.2,30.07,WNW,282,0.0,0.0,80,0.00,BKN,,0.00,0.0,WeatherDisplay:10.37,2013-02-16 11:59:00,
2013-02-16 07:04:00,19.4,14.2,30.06,WNW,282,0.0,0.0,80,0.00,OVC,,0.00,0.0,WeatherDisplay:10.37,2013-02-16 12:04:00,
2013-02-16 07:09:00,19.2,14.0,30.06,WNW,282,0.0,0.0,80,0.00,OVC,,0.00,0.0,WeatherDisplay:10.37,2013-02-16 12:09:00,
2013-02-16 07:14:00,19.1,13.9,30.06,WNW,282,0.0,0.0,80,0.00,OVC,,0.00,0.0,WeatherDisplay:10.37,2013-02-16 12:14:00,
2013-02-16 07:19:00,18.9,13.7,30.06,WNW,282,0.0,0.0,80,0.00,OVC,,0.00,0.0,WeatherDisplay:10.37,2013-02-16 12:19:00,
2013-02-16 07:24:00,18.8,13.9,30.06,WNW,282,0.0,0.0,81,0.00,OVC,,0.00,0.0,WeatherDisplay:10.37,2013-02-16 12:24:00,
2013-02-16 07:29:00,18.4,13.5,30.06,WNW,282,0.0,0.0,81,0.00,OVC,,0.00,5.0,WeatherDisplay:10.37,2013-02-16 12:29:00,
2013-02-16 07:34:00,18.3,13.4,30.07,WNW,282,0.0,0.0,81,0.00,OVC,,0.00,7.0,WeatherDisplay:10.37,2013-02-16 12:34:00,
2013-02-16 07:39:00,18.0,13.2,30.07,WNW,282,0.0,0.0,81,0.00,OVC,,0.00,9.0,WeatherDisplay:10.37,2013-02-16 12:39:00,
2013-02-16 07:44:00,17.8,13.0,30.07,WNW,282,0.0,0.0,81,0.00,OVC,,0.00,12.0,WeatherDisplay:10.37,2013-02-16 12:44:00,
2013-02-16 07:49:00,17.7,12.9,30.07,WNW,282,0.0,0.0,81,0.00,OVC,,0.00,12.0,WeatherDisplay:10.37,2013-02-16 12:49:00,
2013-02-16 07:54:00,17.5,12.7,30.07,WNW,282,0.0,0.0,81,0.00,OVC,,0.00,12.0,WeatherDisplay:10.37,2013-02-16 12:54:00,
2013-02-16 07:59:00,17.3,12.7,30.07,WNW,282,0.0,0.0,82,0.00,OVC,,0.00,14.0,WeatherDisplay:10.37,2013-02-16 12:59:00,
2013-02-16 08:04:00,17.5,13.2,30.07,WNW,282,0.0,0.0,83,0.00,BKN,,0.00,18.0,WeatherDisplay:10.37,2013-02-16 13:04:00,
2013-02-16 08:09:00,17.5,13.2,30.07,WNW,282,0.0,0.0,83,0.00,BKN,,0.00,28.0,WeatherDisplay:10.37,2013-02-16 13:09:00,
2013-02-16 08:14:00,17.7,13.4,30.07,WNW,282,0.0,0.0,83,0.00,BKN,,0.00,35.0,WeatherDisplay:10.37,2013-02-16 13:14:00,
2013-02-16 08:19:00,17.7,13.7,30.07,WNW,282,0.0,0.0,84,0.00,BKN,,0.00,32.0,WeatherDisplay:10.37,2013-02-16 13:19:00,
2013-02-16 08:24:00,18.0,14.0,30.07,WNW,282,0.0,0.0,84,0.00,BKN,,0.00,95.0,WeatherDisplay:10.37,2013-02-16 13:24:00,
2013-02-16 08:29:00,18.6,14.8,30.07,WNW,282,0.0,0.0,85,0.00,BKN,,0.00,76.0,WeatherDisplay:10.37,2013-02-16 13:29:00,
2013-02-16 08:34:00,19.2,15.4,30.07,WNW,282,0.0,0.0,85,0.00,BKN,,0.00,51.0,WeatherDisplay:10.37,2013-02-16 13:34:00,
2013-02-16 08:39:00,19.9,15.8,30.07,WNW,282,0.0,0.0,84,0.00,BKN,,0.00,63.0,WeatherDisplay:10.37,2013-02-16 13:39:00,
2013-02-16 08:44:00,20.2,15.9,30.07,WNW,282,0.1,1.1,83,0.00,BKN,,0.00,83.0,WeatherDisplay:10.37,2013-02-16 13:44:00,
2013-02-16 08:49:00,20.5,15.9,30.07,WNW,282,1.0,1.5,82,0.00,BKN,,0.00,91.0,WeatherDisplay:10.37,2013-02-16 13:49:00,
2013-02-16 08:54:00,20.8,15.9,30.07,WNW,282,1.8,1.8,81,0.00,BKN,,0.00,93.0,WeatherDisplay:10.37,2013-02-16 13:54:00,
2013-02-16 08:59:00,21.1,16.2,30.07,WNW,282,1.5,1.5,81,0.00,BKN,,0.00,90.0,WeatherDisplay:10.37,2013-02-16 13:59:00,
2013-02-16 09:04:00,21.4,16.5,30.06,West,281,3.6,4.6,81,0.00,OVC,,0.00,107.0,WeatherDisplay:10.37,2013-02-16 14:04:00,
2013-02-16 09:09:00,21.8,16.6,30.06,West,281,1.5,3.5,80,0.00,OVC,,0.00,107.0,WeatherDisplay:10.37,2013-02-16 14:09:00,
2013-02-16 09:14:00,21.9,16.4,30.06,West,275,0.0,1.1,79,0.00,OVC,,0.00,113.0,WeatherDisplay:10.37,2013-02-16 14:14:00,
2013-02-16 09:19:00,22.1,16.6,30.06,West,274,3.7,4.6,79,0.00,OVC,,0.00,116.0,WeatherDisplay:10.37,2013-02-16 14:19:00,
2013-02-16 09:24:00,22.4,16.9,30.06,West,274,2.3,4.6,79,0.00,OVC,,0.00,106.0,WeatherDisplay:10.37,2013-02-16 14:24:00,
2013-02-16 09:29:00,22.5,16.7,30.06,West,277,5.1,5.1,78,0.00,OVC,,0.00,106.0,WeatherDisplay:10.37,2013-02-16 14:29:00,
2013-02-16 09:34:00,22.7,16.9,30.06,West,275,4.8,4.8,78,0.00,OVC,,0.00,113.0,WeatherDisplay:10.37,2013-02-16 14:34:00,
2013-02-16 09:39:00,22.7,16.9,30.06,West,278,3.1,3.5,78,0.00,OVC,,0.00,125.0,WeatherDisplay:10.37,2013-02-16 14:39:00,
2013-02-16 09:44:00,22.9,17.4,30.06,West,278,2.9,3.5,79,0.00,OVC,,0.00,127.0,WeatherDisplay:10.37,2013-02-16 14:44:00,
2013-02-16 09:49:00,22.9,17.7,30.06,West,278,1.6,3.5,80,0.00,OVC,,0.00,132.0,WeatherDisplay:10.37,2013-02-16 14:49:00,
2013-02-16 09:54:00,23.0,17.7,30.06,WSW,247,3.1,3.5,80,0.00,OVC,,0.00,146.0,WeatherDisplay:10.37,2013-02-16 14:54:00,
2013-02-16 09:59:00,23.2,17.9,30.06,WSW,246,0.4,1.5,80,0.00,OVC,,0.00,146.0,WeatherDisplay:10.37,2013-02-16 14:59:00,
2013-02-16 10:04:00,23.2,17.7,30.05,SW,232,1.7,8.1,79,0.00,-SN,,0.00,160.0,WeatherDisplay:10.37,2013-02-16 15:04:00,
2013-02-16 10:09:00,23.3,17.5,30.05,WSW,257,3.7,4.6,78,0.00,-SN,,0.00,178.0,WeatherDisplay:10.37,2013-02-16 15:09:00,
2013-02-16 10:14:00,23.5,17.9,30.05,WSW,257,0.2,1.1,79,0.00,-SN,,0.00,218.0,WeatherDisplay:10.37,2013-02-16 15:14:00,
2013-02-16 10:19:00,23.6,17.4,30.05,WSW,257,2.7,3.5,77,0.00,-SN,,0.00,245.0,WeatherDisplay:10.37,2013-02-16 15:19:00,
2013-02-16 10:24:00,23.9,17.7,30.05,West,260,0.2,1.5,77,0.00,-SN,,0.00,252.0,WeatherDisplay:10.37,2013-02-16 15:24:00,
2013-02-16 10:29:00,24.4,17.9,30.05,WSW,258,4.1,4.6,76,0.00,-SN,,0.00,278.0,WeatherDisplay:10.37,2013-02-16 15:29:00,
2013-02-16 10:34:00,24.8,18.3,30.05,WSW,257,1.0,3.5,76,0.00,-SN,,0.00,348.0,WeatherDisplay:10.37,2013-02-16 15:34:00,
2013-02-16 10:39:00,25.1,18.0,30.05,SSW,206,2.1,4.6,74,0.00,-SN,,0.00,333.0,WeatherDisplay:10.37,2013-02-16 15:39:00,
2013-02-16 10:44:00,25.3,18.5,30.05,SSW,209,1.9,4.6,75,0.00,-SN,,0.00,194.0,WeatherDisplay:10.37,2013-02-16 15:44:00,
2013-02-16 10:49:00,25.4,18.3,30.05,SSW,210,2.5,3.5,74,0.00,-SN,,0.00,215.0,WeatherDisplay:10.37,2013-02-16 15:49:00,
2013-02-16 10:54:00,25.3,17.9,30.05,SW,226,1.6,4.6,73,0.00,-SN,,0.00,162.0,WeatherDisplay:10.37,2013-02-16 15:54:00,
2013-02-16 10:59:00,25.4,17.9,30.05,SW,226,3.7,3.7,73,0.00,-SN,,0.00,250.0,WeatherDisplay:10.37,2013-02-16 15:59:00,
2013-02-16 11:04:00,25.4,17.9,30.04,SW,226,1.8,3.5,73,0.00,-SN,,0.00,232.0,WeatherDisplay:10.37,2013-02-16 16:04:00,
2013-02-16 11:09:00,25.4,17.9,30.04,West,265,1.9,8.1,73,0.00,-SN,,0.00,238.0,WeatherDisplay:10.37,2013-02-16 16:09:00,
2013-02-16 11:14:00,25.4,17.9,30.04,West,267,1.7,3.5,73,0.00,-SN,,0.00,181.0,WeatherDisplay:10.37,2013-02-16 16:14:00,
2013-02-16 11:19:00,25.7,17.9,30.04,West,265,2.8,3.5,72,0.00,-SN,,0.00,195.0,WeatherDisplay:10.37,2013-02-16 16:19:00,
2013-02-16 11:24:00,25.8,17.7,30.04,WSW,244,2.5,4.6,71,0.00,-SN,,0.00,160.0,WeatherDisplay:10.37,2013-02-16 16:24:00,
2013-02-16 11:29:00,25.7,17.3,30.04,WSW,244,3.4,3.5,70,0.00,-SN,,0.00,185.0,WeatherDisplay:10.37,2013-02-16 16:29:00,
2013-02-16 11:34:00,25.6,16.5,30.04,WSW,247,0.9,1.5,68,0.00,-SN,,0.00,185.0,WeatherDisplay:10.37,2013-02-16 16:34:00,
2013-02-16 11:39:00,25.4,16.3,30.04,West,268,3.2,4.6,68,0.00,-SN,,0.00,146.0,WeatherDisplay:10.37,2013-02-16 16:39:00,
2013-02-16 11:44:00,25.4,16.6,30.04,West,271,5.5,8.1,69,0.00,-SN,,0.00,144.0,WeatherDisplay:10.37,2013-02-16 16:44:00,
2013-02-16 11:49:00,25.1,17.7,30.03,NW,318,2.5,4.6,73,0.00,-SN,,0.00,143.0,WeatherDisplay:10.37,2013-02-16 16:49:00,
2013-02-16 11:54:00,24.8,17.4,30.03,NW,306,6.8,8.1,73,0.00,-SN,,0.00,118.0,WeatherDisplay:10.37,2013-02-16 16:54:00,
2013-02-16 11:59:00,24.8,17.7,30.03,NW,306,2.8,3.5,74,0.00,-SN,,0.00,90.0,WeatherDisplay:10.37,2013-02-16 16:59:00,
2013-02-16 12:04:00,24.8,17.7,30.03,NW,306,0.1,1.1,74,0.00,-SN,,0.00,72.0,WeatherDisplay:10.37,2013-02-16 17:04:00,
2013-02-16 12:09:00,24.8,17.7,30.03,NW,306,3.4,4.6,74,0.00,-SN,,0.00,65.0,WeatherDisplay:10.37,2013-02-16 17:09:00,
2013-02-16 12:14:00,24.7,17.6,30.03,NW,305,3.9,4.6,74,0.00,-SN,,0.00,65.0,WeatherDisplay:10.37,2013-02-16 17:14:00,
2013-02-16 12:19:00,24.5,17.4,30.03,NW,305,0.5,1.5,74,0.00,-SN,,0.00,67.0,WeatherDisplay:10.37,2013-02-16 17:19:00,
2013-02-16 12:24:00,24.2,17.7,30.03,NW,306,3.4,3.5,76,0.00,-SN,,0.00,58.0,WeatherDisplay:10.37,2013-02-16 17:24:00,
2013-02-16 12:29:00,23.8,17.9,30.03,NW,305,3.8,4.6,78,0.00,-SN,,0.00,67.0,WeatherDisplay:10.37,2013-02-16 17:29:00,
2013-02-16 12:34:00,23.5,18.2,30.03,NW,305,1.3,3.5,80,0.00,-SN,,0.00,65.0,WeatherDisplay:10.37,2013-02-16 17:34:00,
2013-02-16 12:39:00,23.5,18.5,30.03,NW,305,0.0,0.0,81,0.00,-SN,,0.00,69.0,WeatherDisplay:10.37,2013-02-16 17:39:00,
2013-02-16 12:44:00,23.6,18.6,30.03,NW,305,3.0,3.5,81,0.00,-SN,,0.00,76.0,WeatherDisplay:10.37,2013-02-16 17:44:00,
2013-02-16 12:49:00,23.6,18.9,30.02,WNW,282,7.5,8.1,82,0.00,-SN,,0.00,102.0,WeatherDisplay:10.37,2013-02-16 17:49:00,
2013-02-16 12:54:00,23.6,19.2,30.02,WNW,284,7.7,8.1,83,0.00,-SN,,0.00,128.0,WeatherDisplay:10.37,2013-02-16 17:54:00,
2013-02-16 12:59:00,23.6,19.5,30.02,WNW,282,7.3,9.2,84,0.00,-SN,,0.00,125.0,WeatherDisplay:10.37,2013-02-16 17:59:00,
2013-02-16 13:04:00,23.5,19.4,30.02,WNW,285,6.3,8.1,84,0.00,OVC,,0.00,107.0,WeatherDisplay:10.37,2013-02-16 18:04:00,
2013-02-16 13:09:00,23.6,19.8,30.02,WNW,296,9.6,10.4,85,0.00,OVC,,0.00,107.0,WeatherDisplay:10.37,2013-02-16 18:09:00,
2013-02-16 13:14:00,23.5,19.4,30.02,WNW,292,9.5,9.5,84,0.00,OVC,,0.00,106.0,WeatherDisplay:10.37,2013-02-16 18:14:00,
2013-02-16 13:19:00,23.5,19.4,30.01,NW,315,6.1,8.1,84,0.00,OVC,,0.00,120.0,WeatherDisplay:10.37,2013-02-16 18:19:00,
2013-02-16 13:24:00,23.6,19.5,30.01,WNW,287,7.9,9.2,84,0.00,OVC,,0.00,127.0,WeatherDisplay:10.37,2013-02-16 18:24:00,
2013-02-16 13:29:00,23.8,19.4,30.01,WNW,299,5.1,10.4,83,0.00,BKN,,0.00,143.0,WeatherDisplay:10.37,2013-02-16 18:29:00,
2013-02-16 13:34:00,23.9,18.6,30.01,NE,34,3.4,5.8,80,0.00,BKN,,0.00,141.0,WeatherDisplay:10.37,2013-02-16 18:34:00,
2013-02-16 13:39:00,24.1,17.9,30.01,NW,326,6.4,8.1,77,0.00,BKN,,0.00,160.0,WeatherDisplay:10.37,2013-02-16 18:39:00,
2013-02-16 13:44:00,24.1,17.6,30.01,WNW,294,6.7,9.2,76,0.00,BKN,,0.00,176.0,WeatherDisplay:10.37,2013-02-16 18:44:00,
2013-02-16 13:49:00,24.2,17.1,30.00,West,280,4.5,8.1,74,0.00,BKN,,0.00,185.0,WeatherDisplay:10.37,2013-02-16 18:49:00,
2013-02-16 13:54:00,24.7,17.6,30.00,WNW,285,4.1,4.6,74,0.00,BKN,,0.00,183.0,WeatherDisplay:10.37,2013-02-16 18:54:00,
2013-02-16 13:59:00,25.3,17.9,30.00,WNW,298,3.0,4.6,73,0.00,BKN,,0.00,171.0,WeatherDisplay:10.37,2013-02-16 18:59:00,
2013-02-16 14:04:00,25.3,17.9,30.00,West,281,3.0,4.6,73,0.00,-SN,,0.00,169.0,WeatherDisplay:10.37,2013-02-16 19:04:00,
2013-02-16 14:09:00,25.4,17.9,30.00,WNW,287,3.7,4.6,73,0.00,-SN,,0.00,172.0,WeatherDisplay:10.37,2013-02-16 19:09:00,
2013-02-16 14:14:00,25.6,17.8,30.00,WNW,301,3.4,4.6,72,0.00,-SN,,0.00,99.0,WeatherDisplay:10.37,2013-02-16 19:14:00,
2013-02-16 14:19:00,25.3,18.2,30.00,WNW,294,7.0,10.4,74,0.00,-SN,,0.00,172.0,WeatherDisplay:10.37,2013-02-16 19:19:00,
2013-02-16 14:24:00,25.0,18.8,30.00,NW,320,5.8,8.1,77,0.00,-SN,,0.00,271.0,WeatherDisplay:10.37,2013-02-16 19:24:00,
2013-02-16 14:29:00,24.5,19.2,30.00,West,277,7.8,9.2,80,0.00,-SN,,0.00,151.0,WeatherDisplay:10.37,2013-02-16 19:29:00,
2013-02-16 14:34:00,24.4,19.1,30.00,West,280,4.9,4.9,80,0.00,-SN,,0.00,120.0,WeatherDisplay:10.37,2013-02-16 19:34:00,
2013-02-16 14:39:00,24.5,19.2,30.00,West,278,4.0,4.6,80,0.00,-SN,,0.00,95.0,WeatherDisplay:10.37,2013-02-16 19:39:00,
2013-02-16 14:45:00,24.5,18.9,30.00,WNW,287,10.4,10.4,79,0.00,-SN,,0.00,81.0,WeatherDisplay:10.37,2013-02-16 19:45:00,
2013-02-16 14:50:00,23.5,18.5,30.00,NW,304,8.8,11.5,81,0.00,-SN,,0.00,79.0,WeatherDisplay:10.37,2013-02-16 19:50:00,
2013-02-16 14:55:00,23.3,18.6,30.00,NW,316,9.5,9.5,82,0.00,-SN,,0.00,123.0,WeatherDisplay:10.37,2013-02-16 19:55:00,
2013-02-16 15:00:00,23.8,19.4,30.00,NNW,328,6.9,9.2,83,0.00,-SN,,0.00,252.0,WeatherDisplay:10.37,2013-02-16 20:00:00,
2013-02-16 15:05:00,24.2,20.1,30.00,NW,312,4.7,6.0,84,0.00,-SN,,0.00,320.0,WeatherDisplay:10.37,2013-02-16 20:05:00,
2013-02-16 15:10:00,24.5,20.4,30.00,NW,306,4.2,4.6,84,0.00,-SN,,0.00,322.0,WeatherDisplay:10.37,2013-02-16 20:10:00,
2013-02-16 15:15:00,25.0,20.6,30.00,NW,312,4.0,4.6,83,0.00,-SN,,0.00,384.0,WeatherDisplay:10.37,2013-02-16 20:15:00,
2013-02-16 15:20:00,25.6,20.6,29.99,NW,323,6.7,7.5,81,0.00,-SN,,0.00,505.0,WeatherDisplay:10.37,2013-02-16 20:20:00,
2013-02-16 15:25:00,25.8,19.3,29.99,NW,304,3.6,8.1,76,0.00,-SN,,0.00,489.0,WeatherDisplay:10.37,2013-02-16 20:25:00,
2013-02-16 15:30:00,26.0,18.8,29.99,NW,309,10.6,10.6,74,0.00,-SN,,0.00,530.0,WeatherDisplay:10.37,2013-02-16 20:30:00,
2013-02-16 15:35:00,25.6,18.1,29.99,WNW,299,5.1,9.0,73,0.00,-SN,,0.00,143.0,WeatherDisplay:10.37,2013-02-16 20:35:00,
2013-02-16 15:40:00,25.6,17.8,29.99,WNW,299,5.6,5.6,72,0.00,-SN,,0.00,121.0,WeatherDisplay:10.37,2013-02-16 20:40:00,
2013-02-16 15:45:00,25.1,16.7,29.99,WNW,301,5.8,8.1,70,0.00,-SN,,0.00,116.0,WeatherDisplay:10.37,2013-02-16 20:45:00,
2013-02-16 15:50:00,25.1,16.7,30.00,WNW,297,7.0,15.0,70,0.00,-SN,,0.00,116.0,WeatherDisplay:10.37,2013-02-16 20:50:00,
2013-02-16 15:55:00,24.8,15.7,30.00,WNW,285,4.5,9.2,68,0.00,-SN,,0.00,185.0,WeatherDisplay:10.37,2013-02-16 20:55:00,
2013-02-16 16:00:00,25.1,16.0,30.00,NW,304,3.0,4.6,68,0.00,-SN,,0.00,190.0,WeatherDisplay:10.37,2013-02-16 21:00:00,
2013-02-16 16:05:00,25.1,15.3,30.00,NW,311,8.6,9.2,66,0.00,OVC,,0.00,69.0,WeatherDisplay:10.37,2013-02-16 21:05:00,
2013-02-16 16:10:00,25.1,15.0,30.00,NW,305,6.3,8.1,65,0.00,OVC,,0.00,76.0,WeatherDisplay:10.37,2013-02-16 21:10:00,
2013-02-16 16:15:00,25.0,14.9,30.00,NW,304,8.7,10.4,65,0.00,OVC,,0.00,102.0,WeatherDisplay:10.37,2013-02-16 21:15:00,
2013-02-16 16:21:00,25.0,14.5,30.01,West,281,8.5,9.2,64,0.00,OVC,,0.00,132.0,WeatherDisplay:10.37,2013-02-16 21:21:00,
2013-02-16 16:26:00,25.0,14.2,30.01,WNW,302,14.1,14.1,63,0.00,OVC,,0.00,137.0,WeatherDisplay:10.37,2013-02-16 21:26:00,
2013-02-16 16:31:00,24.5,14.4,30.01,NNW,328,12.1,16.1,65,0.00,OVC,,0.00,194.0,WeatherDisplay:10.37,2013-02-16 21:31:00,
2013-02-16 16:36:00,24.1,14.4,30.02,NW,316,12.3,18.4,66,0.00,OVC,,0.00,151.0,WeatherDisplay:10.37,2013-02-16 21:36:00,
2013-02-16 16:41:00,23.9,14.5,30.02,NW,305,10.1,10.4,67,0.00,OVC,,0.00,100.0,WeatherDisplay:10.37,2013-02-16 21:41:00,
2013-02-16 16:46:00,23.9,14.2,30.02,NW,318,9.8,10.4,66,0.00,OVC,,0.00,128.0,WeatherDisplay:10.37,2013-02-16 21:46:00,
2013-02-16 16:51:00,23.6,13.9,30.02,NW,315,9.9,11.5,66,0.00,OVC,,0.00,109.0,WeatherDisplay:10.37,2013-02-16 21:51:00,
2013-02-16 16:56:00,23.6,13.9,30.02,WNW,295,9.9,10.4,66,0.00,OVC,,0.00,114.0,WeatherDisplay:10.37,2013-02-16 21:56:00,
2013-02-16 17:01:00,23.8,14.4,30.02,WNW,296,4.9,8.1,67,0.00,OVC,,0.00,109.0,WeatherDisplay:10.37,2013-02-16 22:01:00,
2013-02-16 17:06:00,24.1,14.7,30.02,NW,315,5.3,7.5,67,0.00,-SN,,0.00,102.0,WeatherDisplay:10.37,2013-02-16 22:06:00,
2013-02-16 17:11:00,24.2,14.1,30.02,WNW,302,5.0,7.5,65,0.00,-SN,,0.00,90.0,WeatherDisplay:10.37,2013-02-16 22:11:00,
2013-02-16 17:16:00,24.2,13.8,30.02,NNW,333,6.8,6.8,64,0.00,-SN,,0.00,63.0,WeatherDisplay:10.37,2013-02-16 22:16:00,
2013-02-16 17:21:00,24.1,11.8,30.02,NW,305,9.1,11.5,59,0.00,-SN,,0.00,100.0,WeatherDisplay:10.37,2013-02-16 22:21:00,
2013-02-16 17:26:00,23.8,10.4,30.02,NW,312,4.2,4.6,56,0.00,-SN,,0.00,39.0,WeatherDisplay:10.37,2013-02-16 22:26:00,
2013-02-16 17:31:00,23.8,10.8,30.02,WNW,292,5.0,5.0,57,0.00,-SN,,0.00,33.0,WeatherDisplay:10.37,2013-02-16 22:31:00,
2013-02-16 17:36:00,23.5,10.5,30.02,NW,308,5.1,5.1,57,0.00,-SN,,0.00,30.0,WeatherDisplay:10.37,2013-02-16 22:36:00,
2013-02-16 17:41:00,23.3,10.3,30.02,NNW,329,11.1,11.1,57,0.00,-SN,,0.00,19.0,WeatherDisplay:10.37,2013-02-16 22:41:00,
2013-02-16 17:46:00,23.2,10.6,30.02,WNW,284,6.3,9.2,58,0.00,-SN,,0.00,19.0,WeatherDisplay:10.37,2013-02-16 22:46:00,
2013-02-16 17:51:00,23.2,11.0,30.03,WNW,299,3.3,3.5,59,0.00,-SN,,0.00,23.0,WeatherDisplay:10.37,2013-02-16 22:51:00,
2013-02-16 17:56:00,23.2,10.2,30.03,West,275,9.0,9.0,57,0.00,-SN,,0.00,19.0,WeatherDisplay:10.37,2013-02-16 22:56:00,
2013-02-16 18:01:00,23.0,9.2,30.03,NW,311,8.8,10.4,55,0.00,-SN,,0.00,11.0,WeatherDisplay:10.37,2013-02-16 23:01:00,
2013-02-16 18:06:00,22.7,8.9,30.03,NW,308,5.8,5.8,55,0.00,BKN,,0.00,7.0,WeatherDisplay:10.37,2013-02-16 23:06:00,
2013-02-16 18:11:00,22.5,8.7,30.03,WNW,292,6.6,9.2,55,0.00,BKN,,0.00,5.0,WeatherDisplay:10.37,2013-02-16 23:11:00,
2013-02-16 18:16:00,22.2,8.9,30.03,NW,322,10.0,10.4,56,0.00,BKN,,0.00,0.0,WeatherDisplay:10.37,2013-02-16 23:16:00,
2013-02-16 18:21:00,21.9,9.4,30.04,West,267,4.2,9.2,58,0.00,BKN,,0.00,0.0,WeatherDisplay:10.37,2013-02-16 23:21:00,
2013-02-16 18:26:00,21.6,9.5,30.04,WNW,298,5.9,9.2,59,0.00,BKN,,0.00,0.0,WeatherDisplay:10.37,2013-02-16 23:26:00,
2013-02-16 18:31:00,21.4,9.7,30.04,NW,320,4.3,4.6,60,0.00,BKN,,0.00,0.0,WeatherDisplay:10.37,2013-02-16 23:31:00,
2013-02-16 18:36:00,21.3,9.6,30.05,WNW,287,4.4,4.6,60,0.00,BKN,,0.00,0.0,WeatherDisplay:10.37,2013-02-16 23:36:00,
2013-02-16 18:41:00,21.1,9.7,30.05,WNW,288,3.0,3.5,61,0.00,BKN,,0.00,0.0,WeatherDisplay:10.37,2013-02-16 23:41:00,
2013-02-16 18:46:00,21.0,10.0,30.05,West,278,4.6,4.6,62,0.00,BKN,,0.00,0.0,WeatherDisplay:10.37,2013-02-16 23:46:00,
2013-02-16 18:51:00,20.8,10.2,30.06,WNW,285,5.2,5.2,63,0.00,BKN,,0.00,0.0,WeatherDisplay:10.37,2013-02-16 23:51:00,
2013-02-16 18:56:00,20.6,10.3,30.06,NW,308,5.3,5.8,64,0.00,BKN,,0.00,0.0,WeatherDisplay:10.37,2013-02-16 23:56:00,
2013-02-16 19:01:00,20.6,10.7,30.06,NW,304,4.4,9.2,65,0.00,BKN,,0.00,0.0,WeatherDisplay:10.37,2013-02-17 00:01:00,
2013-02-16 19:06:00,20.5,11.3,30.06,West,271,7.3,9.0,67,0.00,BKN,,0.00,0.0,WeatherDisplay:10.37,2013-02-17 00:06:00,
2013-02-16 19:11:00,20.3,11.4,30.06,West,278,4.9,9.2,68,0.00,BKN,,0.00,0.0,WeatherDisplay:10.37,2013-02-17 00:11:00,
2013-02-16 19:16:00,20.2,11.7,30.06,WNW,285,4.6,8.1,69,0.00,BKN,,0.00,0.0,WeatherDisplay:10.37,2013-02-17 00:16:00,
2013-02-16 19:21:00,20.0,11.5,30.07,WNW,288,3.8,8.1,69,0.00,BKN,,0.00,0.0,WeatherDisplay:10.37,2013-02-17 00:21:00,
2013-02-16 19:26:00,19.9,11.7,30.07,WNW,287,6.5,7.5,70,0.00,BKN,,0.00,0.0,WeatherDisplay:10.37,2013-02-17 00:26:00,
2013-02-16 19:31:00,19.7,11.5,30.07,NW,306,2.3,3.5,70,0.00,BKN,,0.00,0.0,WeatherDisplay:10.37,2013-02-17 00:31:00,
2013-02-16 19:36:00,19.5,11.6,30.07,NW,306,0.5,3.5,71,0.00,BKN,,0.00,0.0,WeatherDisplay:10.37,2013-02-17 00:36:00,
2013-02-16 19:41:00,19.4,11.5,30.07,NW,312,3.3,4.6,71,0.00,BKN,,0.00,0.0,WeatherDisplay:10.37,2013-02-17 00:41:00,
2013-02-16 19:46:00,19.2,11.3,30.07,NW,319,2.2,4.6,71,0.00,BKN,,0.00,0.0,WeatherDisplay:10.37,2013-02-17 00:46:00,
2013-02-16 19:51:00,19.1,11.2,30.07,NW,309,4.8,9.0,71,0.00,BKN,,0.00,0.0,WeatherDisplay:10.37,2013-02-17 00:51:00,
2013-02-16 19:56:00,19.1,11.6,30.07,NW,322,3.9,4.6,72,0.00,BKN,,0.00,0.0,WeatherDisplay:10.37,2013-02-17 00:56:00,
2013-02-16 20:01:00,18.9,11.7,30.07,NW,322,2.7,3.5,73,0.00,BKN,,0.00,0.0,WeatherDisplay:10.37,2013-02-17 01:01:00,
2013-02-16 20:06:00,18.8,11.6,30.08,NW,322,2.7,4.5,73,0.00,BKN,,0.00,0.0,WeatherDisplay:10.37,2013-02-17 01:06:00,
2013-02-16 20:11:00,18.6,11.4,30.08,NW,322,1.9,1.9,73,0.00,BKN,,0.00,0.0,WeatherDisplay:10.37,2013-02-17 01:11:00,
2013-02-16 20:16:00,18.4,11.5,30.08,NW,322,2.5,3.5,74,0.00,BKN,,0.00,0.0,WeatherDisplay:10.37,2013-02-17 01:16:00,
2013-02-16 20:21:00,18.3,11.4,30.08,WNW,299,2.5,4.6,74,0.00,BKN,,0.00,0.0,WeatherDisplay:10.37,2013-02-17 01:21:00,
2013-02-16 20:26:00,18.1,11.5,30.08,WNW,299,2.4,3.5,75,0.00,BKN,,0.00,0.0,WeatherDisplay:10.37,2013-02-17 01:26:00,
2013-02-16 20:31:00,18.1,11.5,30.08,WNW,299,2.6,3.5,75,0.00,BKN,,0.00,0.0,WeatherDisplay:10.37,2013-02-17 01:31:00,
2013-02-16 20:36:00,18.0,11.7,30.08,WNW,299,2.2,3.5,76,0.00,BKN,,0.00,0.0,WeatherDisplay:10.37,2013-02-17 01:36:00,
2013-02-16 20:41:00,18.0,11.7,30.08,WNW,299,0.7,3.5,76,0.00,BKN,,0.00,0.0,WeatherDisplay:10.37,2013-02-17 01:41:00,
2013-02-16 20:46:00,17.8,11.8,30.08,WNW,299,2.6,3.5,77,0.00,BKN,,0.00,0.0,WeatherDisplay:10.37,2013-02-17 01:46:00,
2013-02-16 20:51:00,17.8,11.8,30.07,WNW,299,3.5,3.5,77,0.00,BKN,,0.00,0.0,WeatherDisplay:10.37,2013-02-17 01:51:00,
2013-02-16 20:56:00,17.8,11.8,30.07,WNW,299,4.0,4.6,77,0.00,BKN,,0.00,0.0,WeatherDisplay:10.37,2013-02-17 01:56:00,
2013-02-16 21:01:00,17.8,11.8,30.07,WNW,299,3.0,3.5,77,0.00,BKN,,0.00,0.0,WeatherDisplay:10.37,2013-02-17 02:01:00,
2013-02-16 21:06:00,17.7,11.7,30.07,WNW,299,3.9,4.6,77,0.00,SCT,,0.00,0.0,WeatherDisplay:10.37,2013-02-17 02:06:00,
2013-02-16 21:11:00,17.7,11.7,30.07,WNW,294,4.8,4.8,77,0.00,SCT,,0.00,0.0,WeatherDisplay:10.37,2013-02-17 02:11:00,
2013-02-16 21:16:00,17.7,11.7,30.07,WNW,287,4.3,4.6,77,0.00,SCT,,0.00,0.0,WeatherDisplay:10.37,2013-02-17 02:16:00,
2013-02-16 21:21:00,17.5,11.2,30.07,WNW,287,2.9,3.5,76,0.00,SCT,,0.00,0.0,WeatherDisplay:10.37,2013-02-17 02:21:00,
2013-02-16 21:26:00,17.5,11.2,30.07,WNW,291,4.2,4.6,76,0.00,SCT,,0.00,0.0,WeatherDisplay:10.37,2013-02-17 02:26:00,
2013-02-16 21:31:00,17.5,11.2,30.07,WNW,291,3.7,4.6,76,0.00,SCT,,0.00,0.0,WeatherDisplay:10.37,2013-02-17 02:31:00,
2013-02-16 21:36:00,17.5,11.2,30.08,WNW,288,3.0,3.5,76,0.00,SCT,,0.00,0.0,WeatherDisplay:10.37,2013-02-17 02:36:00,
2013-02-16 21:41:00,17.3,11.0,30.08,WNW,291,4.6,4.6,76,0.00,SCT,,0.00,0.0,WeatherDisplay:10.37,2013-02-17 02:41:00,
2013-02-16 21:46:00,17.3,11.3,30.08,WNW,288,3.0,4.6,77,0.00,SCT,,0.00,0.0,WeatherDisplay:10.37,2013-02-17 02:46:00,
2013-02-16 21:51:00,17.3,11.3,30.08,WNW,288,3.5,4.6,77,0.00,SCT,,0.00,0.0,WeatherDisplay:10.37,2013-02-17 02:51:00,
2013-02-16 21:56:00,17.2,11.2,30.08,WNW,288,2.6,3.5,77,0.00,SCT,,0.00,0.0,WeatherDisplay:10.37,2013-02-17 02:56:00,
2013-02-16 22:01:00,17.2,11.2,30.08,WNW,288,2.0,2.0,77,0.00,SCT,,0.00,0.0,WeatherDisplay:10.37,2013-02-17 03:01:00,
2013-02-16 22:06:00,17.0,11.3,30.08,WNW,288,2.6,4.6,78,0.00,BKN,,0.00,0.0,WeatherDisplay:10.37,2013-02-17 03:06:00,
2013-02-16 22:11:00,17.0,11.3,30.08,WNW,289,4.5,4.6,78,0.00,BKN,,0.00,0.0,WeatherDisplay:10.37,2013-02-17 03:11:00,
2013-02-16 22:16:00,17.0,11.3,30.08,WNW,292,4.3,4.6,78,0.00,BKN,,0.00,0.0,WeatherDisplay:10.37,2013-02-17 03:16:00,
2013-02-16 22:21:00,16.9,11.2,30.08,WNW,284,5.0,8.1,78,0.00,BKN,,0.00,0.0,WeatherDisplay:10.37,2013-02-17 03:21:00,
2013-02-16 22:26:00,16.9,11.2,30.08,West,274,4.3,4.5,78,0.00,BKN,,0.00,0.0,WeatherDisplay:10.37,2013-02-17 03:26:00,
2013-02-16 22:31:00,16.9,11.2,30.08,WNW,294,5.7,8.1,78,0.00,BKN,,0.00,0.0,WeatherDisplay:10.37,2013-02-17 03:31:00,
2013-02-16 22:36:00,16.9,11.2,30.07,WNW,289,4.6,7.5,78,0.00,BKN,,0.00,0.0,WeatherDisplay:10.37,2013-02-17 03:36:00,
2013-02-16 22:41:00,16.9,11.2,30.07,NW,309,3.3,6.0,78,0.00,BKN,,0.00,0.0,WeatherDisplay:10.37,2013-02-17 03:41:00,
2013-02-16 22:46:00,16.9,11.5,30.07,NW,315,3.5,3.5,79,0.00,BKN,,0.00,0.0,WeatherDisplay:10.37,2013-02-17 03:46:00,
2013-02-16 22:51:00,17.0,11.6,30.08,West,271,7.4,8.1,79,0.00,BKN,,0.00,0.0,WeatherDisplay:10.37,2013-02-17 03:51:00,
2013-02-16 22:56:00,17.0,11.6,30.08,WNW,288,3.0,3.0,79,0.00,BKN,,0.00,0.0,WeatherDisplay:10.37,2013-02-17 03:56:00,
2013-02-16 23:01:00,17.0,11.9,30.08,WNW,294,3.4,4.6,80,0.00,BKN,,0.00,0.0,WeatherDisplay:10.37,2013-02-17 04:01:00,
2013-02-16 23:06:00,17.2,12.1,30.08,WNW,296,4.8,4.8,80,0.00,SCT,,0.00,0.0,WeatherDisplay:10.37,2013-02-17 04:06:00,
2013-02-16 23:11:00,17.2,12.4,30.08,WNW,296,7.3,8.1,81,0.00,SCT,,0.00,0.0,WeatherDisplay:10.37,2013-02-17 04:11:00,
2013-02-16 23:16:00,17.3,12.5,30.08,NW,304,3.3,4.6,81,0.00,SCT,,0.00,0.0,WeatherDisplay:10.37,2013-02-17 04:16:00,
2013-02-16 23:21:00,17.5,12.7,30.07,NW,313,5.9,5.9,81,0.00,SCT,,0.00,0.0,WeatherDisplay:10.37,2013-02-17 04:21:00,
2013-02-16 23:26:00,17.3,12.7,30.07,WNW,287,3.9,5.8,82,0.00,SCT,,0.00,0.0,WeatherDisplay:10.37,2013-02-17 04:26:00,
2013-02-16 23:31:00,17.3,12.7,30.07,West,281,5.5,7.5,82,0.00,SCT,,0.00,0.0,WeatherDisplay:10.37,2013-02-17 04:31:00,
2013-02-16 23:36:00,17.2,12.9,30.07,WNW,298,5.0,5.0,83,0.00,SCT,,0.00,0.0,WeatherDisplay:10.37,2013-02-17 04:36:00,
2013-02-16 23:41:00,17.0,12.7,30.07,WNW,282,7.9,9.2,83,0.00,SCT,,0.00,0.0,WeatherDisplay:10.37,2013-02-17 04:41:00,
2013-02-16 23:46:00,16.7,12.4,30.07,West,280,4.4,4.6,83,0.00,SCT,,0.00,0.0,WeatherDisplay:10.37,2013-02-17 04:46:00,
2013-02-16 23:51:00,16.5,12.2,30.07,West,280,2.8,4.6,83,0.00,SCT,,0.00,0.0,WeatherDisplay:10.37,2013-02-17 04:51:00,
2013-02-16 23:56:00,16.4,12.1,30.07,West,280,2.4,3.5,83,0.00,SCT,,0.00,0.0,WeatherDisplay:10.37,2013-02-17 04:56:00,